sensor_id;sensor_type;location;lat;lon;timestamp;pressure;altitude;pressure_sealevel;temperature;humidity
57094;BME280;42970;50.996;3.706;2022-12-18T00:00:39;80043.84;;;-146.65;100.00
57094;BME280;42970;50.996;3.706;2022-12-18T00:03:04;80033.72;;;-146.65;100.00
57094;BME280;42970;50.996;3.706;2022-12-18T00:05:29;80029.69;;;-146.65;100.00
57094;BME280;42970;50.996;3.706;2022-12-18T00:07:55;80043.84;;;-146.65;100.00
57094;BME280;42970;50.996;3.706;2022-12-18T00:10:20;80059.97;;;-146.65;100.00
57094;BME280;42970;50.996;3.706;2022-12-18T00:12:45;80078.16;;;-146.65;100.00
57094;BME280;42970;50.996;3.706;2022-12-18T00:15:11;80047.88;;;-146.65;100.00
57094;BME280;42970;50.996;3.706;2022-12-18T00:17:36;80064.03;;;-146.65;100.00
57094;BME280;42970;50.996;3.706;2022-12-18T00:20:02;80082.19;;;-146.65;100.00
57094;BME280;42970;50.996;3.706;2022-12-18T00:22:27;80055.94;;;-146.65;100.00
57094;BME280;42970;50.996;3.706;2022-12-18T00:24:52;80070.09;;;-146.65;100.00
57094;BME280;42970;50.996;3.706;2022-12-18T00:27:17;80098.34;;;-146.65;100.00
57094;BME280;42970;50.996;3.706;2022-12-18T00:29:43;80088.25;;;-146.65;100.00
57094;BME280;42970;50.996;3.706;2022-12-18T00:32:08;80082.19;;;-146.65;100.00
57094;BME280;42970;50.996;3.706;2022-12-18T00:34:33;80072.09;;;-146.65;100.00
57094;BME280;42970;50.996;3.706;2022-12-18T00:36:59;80068.06;;;-146.65;100.00
57094;BME280;42970;50.996;3.706;2022-12-18T00:39:24;80045.84;;;-146.65;100.00
57094;BME280;42970;50.996;3.706;2022-12-18T00:41:50;80070.09;;;-146.65;100.00
57094;BME280;42970;50.996;3.706;2022-12-18T00:44:33;80082.19;;;-146.65;100.00
57094;BME280;42970;50.996;3.706;2022-12-18T00:46:58;80104.41;;;-146.65;100.00
57094;BME280;42970;50.996;3.706;2022-12-18T00:49:24;80082.19;;;-146.65;100.00
57094;BME280;42970;50.996;3.706;2022-12-18T00:51:49;80047.88;;;-146.65;100.00
57094;BME280;42970;50.996;3.706;2022-12-18T00:54:15;80037.78;;;-146.65;100.00
57094;BME280;42970;50.996;3.706;2022-12-18T00:56:40;80066.03;;;-146.65;100.00
57094;BME280;42970;50.996;3.706;2022-12-18T00:59:06;80078.16;;;-146.65;100.00
57094;BME280;42970;50.996;3.706;2022-12-18T01:01:31;80072.09;;;-146.65;100.00
57094;BME280;42970;50.996;3.706;2022-12-18T01:03:58;80074.13;;;-146.65;100.00
57094;BME280;42970;50.996;3.706;2022-12-18T01:06:24;80057.97;;;-146.65;100.00
57094;BME280;42970;50.996;3.706;2022-12-18T01:08:49;80051.91;;;-146.65;100.00
57094;BME280;42970;50.996;3.706;2022-12-18T01:11:16;80049.88;;;-146.65;100.00
57094;BME280;42970;50.996;3.706;2022-12-18T01:13:42;80045.84;;;-146.65;100.00
57094;BME280;42970;50.996;3.706;2022-12-18T01:16:08;80049.88;;;-146.65;100.00
57094;BME280;42970;50.996;3.706;2022-12-18T01:18:34;80035.75;;;-146.65;100.00
57094;BME280;42970;50.996;3.706;2022-12-18T01:20:59;80045.84;;;-146.65;100.00
57094;BME280;42970;50.996;3.706;2022-12-18T01:23:24;80068.06;;;-146.65;100.00
57094;BME280;42970;50.996;3.706;2022-12-18T01:25:50;80082.19;;;-146.65;100.00
57094;BME280;42970;50.996;3.706;2022-12-18T01:28:15;80080.19;;;-146.65;100.00
57094;BME280;42970;50.996;3.706;2022-12-18T01:30:40;80086.25;;;-146.65;100.00
57094;BME280;42970;50.996;3.706;2022-12-18T01:33:05;80090.28;;;-146.65;100.00
57094;BME280;42970;50.996;3.706;2022-12-18T01:35:31;80102.38;;;-146.65;100.00
57094;BME280;42970;50.996;3.706;2022-12-18T01:37:56;80082.19;;;-146.65;100.00
57094;BME280;42970;50.996;3.706;2022-12-18T01:40:22;80062.00;;;-146.65;100.00
57094;BME280;42970;50.996;3.706;2022-12-18T01:42:53;80078.16;;;-146.65;100.00
57094;BME280;42970;50.996;3.706;2022-12-18T01:45:23;80092.28;;;-146.65;100.00
57094;BME280;42970;50.996;3.706;2022-12-18T01:47:59;80098.34;;;-146.65;100.00
57094;BME280;42970;50.996;3.706;2022-12-18T01:50:39;80096.34;;;-146.65;100.00
57094;BME280;42970;50.996;3.706;2022-12-18T01:53:12;80072.09;;;-146.65;100.00
57094;BME280;42970;50.996;3.706;2022-12-18T01:55:46;80066.03;;;-146.65;100.00
57094;BME280;42970;50.996;3.706;2022-12-18T01:58:12;80062.00;;;-146.65;100.00
57094;BME280;42970;50.996;3.706;2022-12-18T02:00:38;80066.03;;;-146.65;100.00
57094;BME280;42970;50.996;3.706;2022-12-18T02:03:03;80094.31;;;-146.65;100.00
57094;BME280;42970;50.996;3.706;2022-12-18T02:05:37;80138.75;;;-146.65;100.00
57094;BME280;42970;50.996;3.706;2022-12-18T02:08:40;80165.00;;;-146.65;100.00
57094;BME280;42970;50.996;3.706;2022-12-18T02:13:41;80160.94;;;-146.65;100.00
57094;BME280;42970;50.996;3.706;2022-12-18T02:18:40;80175.09;;;-146.65;100.00
57094;BME280;42970;50.996;3.706;2022-12-18T02:21:28;80195.28;;;-146.65;100.00
57094;BME280;42970;50.996;3.706;2022-12-18T02:24:08;80209.41;;;-146.65;100.00
57094;BME280;42970;50.996;3.706;2022-12-18T02:26:41;80211.44;;;-146.65;100.00
57094;BME280;42970;50.996;3.706;2022-12-18T02:29:13;80197.31;;;-146.65;100.00
57094;BME280;42970;50.996;3.706;2022-12-18T02:31:40;80175.09;;;-146.65;100.00
57094;BME280;42970;50.996;3.706;2022-12-18T02:34:08;80175.09;;;-146.65;100.00
57094;BME280;42970;50.996;3.706;2022-12-18T02:36:34;80165.00;;;-146.65;100.00
57094;BME280;42970;50.996;3.706;2022-12-18T02:39:01;80169.03;;;-146.65;100.00
57094;BME280;42970;50.996;3.706;2022-12-18T02:41:27;80138.75;;;-146.65;100.00
57094;BME280;42970;50.996;3.706;2022-12-18T02:43:55;80106.44;;;-146.65;100.00
57094;BME280;42970;50.996;3.706;2022-12-18T02:48:49;80076.13;;;-146.65;100.00
57094;BME280;42970;50.996;3.706;2022-12-18T02:51:22;80074.13;;;-146.65;100.00
57094;BME280;42970;50.996;3.706;2022-12-18T02:54:26;80090.28;;;-146.65;100.00
57094;BME280;42970;50.996;3.706;2022-12-18T02:57:00;80106.44;;;-146.65;100.00
57094;BME280;42970;50.996;3.706;2022-12-18T02:59:47;80114.50;;;-146.65;100.00
57094;BME280;42970;50.996;3.706;2022-12-18T03:02:21;80136.72;;;-146.65;100.00
57094;BME280;42970;50.996;3.706;2022-12-18T03:10:13;80179.13;;;-146.65;100.00
57094;BME280;42970;50.996;3.706;2022-12-18T03:12:43;80189.22;;;-146.65;100.00
57094;BME280;42970;50.996;3.706;2022-12-18T03:15:14;80213.47;;;-146.65;100.00
57094;BME280;42970;50.996;3.706;2022-12-18T03:17:42;80239.72;;;-146.65;100.00
57094;BME280;42970;50.996;3.706;2022-12-18T03:20:11;80257.88;;;-146.65;100.00
57094;BME280;42970;50.996;3.706;2022-12-18T03:22:37;80223.56;;;-146.65;100.00
57094;BME280;42970;50.996;3.706;2022-12-18T03:25:04;80197.31;;;-146.65;100.00
57094;BME280;42970;50.996;3.706;2022-12-18T03:27:31;80175.09;;;-146.65;100.00
57094;BME280;42970;50.996;3.706;2022-12-18T03:30:01;80146.81;;;-146.65;100.00
57094;BME280;42970;50.996;3.706;2022-12-18T03:32:40;80126.63;;;-146.65;100.00
57094;BME280;42970;50.996;3.706;2022-12-18T03:35:07;80124.59;;;-146.65;100.00
57094;BME280;42970;50.996;3.706;2022-12-18T03:37:35;80122.59;;;-146.65;100.00
57094;BME280;42970;50.996;3.706;2022-12-18T03:40:01;80114.50;;;-146.65;100.00
57094;BME280;42970;50.996;3.706;2022-12-18T03:42:37;80114.50;;;-146.65;100.00
57094;BME280;42970;50.996;3.706;2022-12-18T03:45:12;80118.53;;;-146.65;100.00
57094;BME280;42970;50.996;3.706;2022-12-18T03:50:15;80128.66;;;-146.65;100.00
57094;BME280;42970;50.996;3.706;2022-12-18T03:52:46;80118.53;;;-146.65;100.00
57094;BME280;42970;50.996;3.706;2022-12-18T03:55:14;80120.56;;;-146.65;100.00
57094;BME280;42970;50.996;3.706;2022-12-18T03:57:40;80124.59;;;-146.65;100.00
57094;BME280;42970;50.996;3.706;2022-12-18T04:00:16;80140.75;;;-146.65;100.00
57094;BME280;42970;50.996;3.706;2022-12-18T04:02:45;80140.75;;;-146.65;100.00
57094;BME280;42970;50.996;3.706;2022-12-18T04:05:12;80158.94;;;-146.65;100.00
57094;BME280;42970;50.996;3.706;2022-12-18T04:07:39;80150.84;;;-146.65;100.00
57094;BME280;42970;50.996;3.706;2022-12-18T04:10:05;80124.59;;;-146.65;100.00
57094;BME280;42970;50.996;3.706;2022-12-18T04:12:31;80110.47;;;-146.65;100.00
57094;BME280;42970;50.996;3.706;2022-12-18T04:14:57;80102.38;;;-146.65;100.00
57094;BME280;42970;50.996;3.706;2022-12-18T04:17:22;80096.34;;;-146.65;100.00
57094;BME280;42970;50.996;3.706;2022-12-18T04:19:47;80082.19;;;-146.65;100.00
57094;BME280;42970;50.996;3.706;2022-12-18T04:22:12;80078.16;;;-146.65;100.00
57094;BME280;42970;50.996;3.706;2022-12-18T04:24:38;80078.16;;;-146.65;100.00
57094;BME280;42970;50.996;3.706;2022-12-18T04:27:03;80070.09;;;-146.65;100.00
57094;BME280;42970;50.996;3.706;2022-12-18T04:29:29;80066.03;;;-146.65;100.00
57094;BME280;42970;50.996;3.706;2022-12-18T04:31:54;80064.03;;;-146.65;100.00
57094;BME280;42970;50.996;3.706;2022-12-18T04:34:20;80062.00;;;-146.65;100.00
57094;BME280;42970;50.996;3.706;2022-12-18T04:36:45;80066.03;;;-146.65;100.00
57094;BME280;42970;50.996;3.706;2022-12-18T04:39:10;80070.09;;;-146.65;100.00
57094;BME280;42970;50.996;3.706;2022-12-18T04:41:36;80072.09;;;-146.65;100.00
57094;BME280;42970;50.996;3.706;2022-12-18T04:44:01;80082.19;;;-146.65;100.00
57094;BME280;42970;50.996;3.706;2022-12-18T04:46:26;80082.19;;;-146.65;100.00
57094;BME280;42970;50.996;3.706;2022-12-18T04:48:51;80094.31;;;-146.65;100.00
57094;BME280;42970;50.996;3.706;2022-12-18T04:51:17;80094.31;;;-146.65;100.00
57094;BME280;42970;50.996;3.706;2022-12-18T04:53:42;80100.38;;;-146.65;100.00
57094;BME280;42970;50.996;3.706;2022-12-18T04:56:11;80114.50;;;-146.65;100.00
57094;BME280;42970;50.996;3.706;2022-12-18T04:58:38;80110.47;;;-146.65;100.00
57094;BME280;42970;50.996;3.706;2022-12-18T05:01:04;80106.44;;;-146.65;100.00
57094;BME280;42970;50.996;3.706;2022-12-18T05:03:30;80108.44;;;-146.65;100.00
57094;BME280;42970;50.996;3.706;2022-12-18T05:05:55;80122.59;;;-146.65;100.00
57094;BME280;42970;50.996;3.706;2022-12-18T05:08:20;80132.69;;;-146.65;100.00
57094;BME280;42970;50.996;3.706;2022-12-18T05:10:46;80158.94;;;-146.65;100.00
57094;BME280;42970;50.996;3.706;2022-12-18T05:13:11;80167.00;;;-146.65;100.00
57094;BME280;42970;50.996;3.706;2022-12-18T05:15:36;80156.91;;;-146.65;100.00
57094;BME280;42970;50.996;3.706;2022-12-18T05:18:02;80130.66;;;-146.65;100.00
57094;BME280;42970;50.996;3.706;2022-12-18T05:20:27;80114.50;;;-146.65;100.00
57094;BME280;42970;50.996;3.706;2022-12-18T05:22:53;80108.44;;;-146.65;100.00
57094;BME280;42970;50.996;3.706;2022-12-18T05:25:18;80102.38;;;-146.65;100.00
57094;BME280;42970;50.996;3.706;2022-12-18T05:27:44;80098.34;;;-146.65;100.00
57094;BME280;42970;50.996;3.706;2022-12-18T05:30:10;80110.47;;;-146.65;100.00
57094;BME280;42970;50.996;3.706;2022-12-18T05:32:35;80120.56;;;-146.65;100.00
57094;BME280;42970;50.996;3.706;2022-12-18T05:35:01;80122.59;;;-146.65;100.00
57094;BME280;42970;50.996;3.706;2022-12-18T05:37:26;80128.66;;;-146.65;100.00
57094;BME280;42970;50.996;3.706;2022-12-18T05:39:52;80150.84;;;-146.65;100.00
57094;BME280;42970;50.996;3.706;2022-12-18T05:42:17;80142.78;;;-146.65;100.00
57094;BME280;42970;50.996;3.706;2022-12-18T05:44:44;80144.81;;;-146.65;100.00
57094;BME280;42970;50.996;3.706;2022-12-18T05:47:09;80138.75;;;-146.65;100.00
57094;BME280;42970;50.996;3.706;2022-12-18T05:49:35;80138.75;;;-146.65;100.00
57094;BME280;42970;50.996;3.706;2022-12-18T05:52:00;80126.63;;;-146.65;100.00
57094;BME280;42970;50.996;3.706;2022-12-18T05:54:28;80114.50;;;-146.65;100.00
57094;BME280;42970;50.996;3.706;2022-12-18T05:56:54;80112.50;;;-146.65;100.00
57094;BME280;42970;50.996;3.706;2022-12-18T05:59:19;80116.53;;;-146.65;100.00
57094;BME280;42970;50.996;3.706;2022-12-18T06:01:44;80110.47;;;-146.65;100.00
57094;BME280;42970;50.996;3.706;2022-12-18T06:04:10;80106.44;;;-146.65;100.00
57094;BME280;42970;50.996;3.706;2022-12-18T06:06:35;80108.44;;;-146.65;100.00
57094;BME280;42970;50.996;3.706;2022-12-18T06:09:01;80108.44;;;-146.65;100.00
57094;BME280;42970;50.996;3.706;2022-12-18T06:11:33;80104.41;;;-146.65;100.00
57094;BME280;42970;50.996;3.706;2022-12-18T06:13:58;80102.38;;;-146.65;100.00
57094;BME280;42970;50.996;3.706;2022-12-18T06:16:24;80098.34;;;-146.65;100.00
57094;BME280;42970;50.996;3.706;2022-12-18T06:18:49;80094.31;;;-146.65;100.00
57094;BME280;42970;50.996;3.706;2022-12-18T06:21:15;80096.34;;;-146.65;100.00
57094;BME280;42970;50.996;3.706;2022-12-18T06:23:40;80086.25;;;-146.65;100.00
57094;BME280;42970;50.996;3.706;2022-12-18T06:26:06;80078.16;;;-146.65;100.00
57094;BME280;42970;50.996;3.706;2022-12-18T06:28:32;80078.16;;;-146.65;100.00
57094;BME280;42970;50.996;3.706;2022-12-18T06:30:57;80082.19;;;-146.65;100.00
57094;BME280;42970;50.996;3.706;2022-12-18T06:33:25;80082.19;;;-146.65;100.00
57094;BME280;42970;50.996;3.706;2022-12-18T06:35:50;80080.19;;;-146.65;100.00
57094;BME280;42970;50.996;3.706;2022-12-18T06:38:16;80078.16;;;-146.65;100.00
57094;BME280;42970;50.996;3.706;2022-12-18T06:40:41;80064.03;;;-146.65;100.00
57094;BME280;42970;50.996;3.706;2022-12-18T06:43:06;80066.03;;;-146.65;100.00
57094;BME280;42970;50.996;3.706;2022-12-18T06:45:31;80059.97;;;-146.65;100.00
57094;BME280;42970;50.996;3.706;2022-12-18T06:47:57;80070.09;;;-146.65;100.00
57094;BME280;42970;50.996;3.706;2022-12-18T06:50:22;80057.97;;;-146.65;100.00
57094;BME280;42970;50.996;3.706;2022-12-18T06:52:47;80049.88;;;-146.65;100.00
57094;BME280;42970;50.996;3.706;2022-12-18T06:55:13;80033.72;;;-146.65;100.00
57094;BME280;42970;50.996;3.706;2022-12-18T06:57:38;80037.78;;;-146.65;100.00
57094;BME280;42970;50.996;3.706;2022-12-18T07:00:04;80025.66;;;-146.65;100.00
57094;BME280;42970;50.996;3.706;2022-12-18T07:02:30;80033.72;;;-146.65;100.00
57094;BME280;42970;50.996;3.706;2022-12-18T07:04:55;80029.69;;;-146.65;100.00
57094;BME280;42970;50.996;3.706;2022-12-18T07:07:20;80013.53;;;-146.65;100.00
57094;BME280;42970;50.996;3.706;2022-12-18T07:09:46;80023.63;;;-146.65;100.00
57094;BME280;42970;50.996;3.706;2022-12-18T07:12:11;80019.59;;;-146.65;100.00
57094;BME280;42970;50.996;3.706;2022-12-18T07:14:36;80015.56;;;-146.65;100.00
57094;BME280;42970;50.996;3.706;2022-12-18T07:17:02;80009.50;;;-146.65;100.00
57094;BME280;42970;50.996;3.706;2022-12-18T07:19:27;80005.47;;;-146.65;100.00
57094;BME280;42970;50.996;3.706;2022-12-18T07:21:52;79999.41;;;-146.65;100.00
57094;BME280;42970;50.996;3.706;2022-12-18T07:24:18;79995.38;;;-146.65;100.00
57094;BME280;42970;50.996;3.706;2022-12-18T07:26:45;79983.25;;;-146.65;100.00
57094;BME280;42970;50.996;3.706;2022-12-18T07:29:10;79979.22;;;-146.65;100.00
57094;BME280;42970;50.996;3.706;2022-12-18T07:31:36;79973.16;;;-146.65;100.00
57094;BME280;42970;50.996;3.706;2022-12-18T07:34:01;79965.09;;;-146.65;100.00
57094;BME280;42970;50.996;3.706;2022-12-18T07:36:26;79961.03;;;-146.65;100.00
57094;BME280;42970;50.996;3.706;2022-12-18T07:38:51;79950.94;;;-146.65;100.00
57094;BME280;42970;50.996;3.706;2022-12-18T07:41:17;79954.97;;;-146.65;100.00
57094;BME280;42970;50.996;3.706;2022-12-18T07:43:44;79938.81;;;-146.65;100.00
57094;BME280;42970;50.996;3.706;2022-12-18T07:46:09;79942.88;;;-146.65;100.00
57094;BME280;42970;50.996;3.706;2022-12-18T07:48:35;79948.94;;;-146.65;100.00
57094;BME280;42970;50.996;3.706;2022-12-18T07:51:00;79954.97;;;-146.65;100.00
57094;BME280;42970;50.996;3.706;2022-12-18T07:53:26;79948.94;;;-146.65;100.00
57094;BME280;42970;50.996;3.706;2022-12-18T07:55:57;79946.91;;;-146.65;100.00
57094;BME280;42970;50.996;3.706;2022-12-18T07:58:23;79940.84;;;-146.65;100.00
57094;BME280;42970;50.996;3.706;2022-12-18T08:00:48;79942.88;;;-146.65;100.00
57094;BME280;42970;50.996;3.706;2022-12-18T08:03:14;79934.78;;;-146.65;100.00
57094;BME280;42970;50.996;3.706;2022-12-18T08:05:39;79938.81;;;-146.65;100.00
57094;BME280;42970;50.996;3.706;2022-12-18T08:08:04;79944.88;;;-146.65;100.00
57094;BME280;42970;50.996;3.706;2022-12-18T08:10:30;79938.81;;;-146.65;100.00
57094;BME280;42970;50.996;3.706;2022-12-18T08:12:55;79936.81;;;-146.65;100.00
57094;BME280;42970;50.996;3.706;2022-12-18T08:15:20;79928.72;;;-146.65;100.00
57094;BME280;42970;50.996;3.706;2022-12-18T08:17:45;79920.66;;;-146.65;100.00
57094;BME280;42970;50.996;3.706;2022-12-18T08:20:11;79918.63;;;-146.65;100.00
57094;BME280;42970;50.996;3.706;2022-12-18T08:22:36;79910.56;;;-146.65;100.00
57094;BME280;42970;50.996;3.706;2022-12-18T08:25:02;79896.44;;;-146.65;100.00
57094;BME280;42970;50.996;3.706;2022-12-18T08:27:27;79894.41;;;-146.65;100.00
57094;BME280;42970;50.996;3.706;2022-12-18T08:29:53;79880.28;;;-146.65;100.00
57094;BME280;42970;50.996;3.706;2022-12-18T08:32:18;79864.13;;;-146.65;100.00
57094;BME280;42970;50.996;3.706;2022-12-18T08:34:43;79860.06;;;-146.65;100.00
57094;BME280;42970;50.996;3.706;2022-12-18T08:37:09;79833.81;;;-146.65;100.00
57094;BME280;42970;50.996;3.706;2022-12-18T08:39:34;79799.50;;;-146.65;100.00
57094;BME280;42970;50.996;3.706;2022-12-18T08:41:59;79795.47;;;-146.65;100.00
57094;BME280;42970;50.996;3.706;2022-12-18T08:44:43;79787.38;;;-146.65;100.00
57094;BME280;42970;50.996;3.706;2022-12-18T08:47:08;79767.19;;;-146.65;100.00
57094;BME280;42970;50.996;3.706;2022-12-18T08:49:34;79783.34;;;-146.65;100.00
57094;BME280;42970;50.996;3.706;2022-12-18T08:51:59;79771.22;;;-146.65;100.00
57094;BME280;42970;50.996;3.706;2022-12-18T08:54:25;79771.22;;;-146.65;100.00
57094;BME280;42970;50.996;3.706;2022-12-18T08:56:50;79767.19;;;-146.65;100.00
57094;BME280;42970;50.996;3.706;2022-12-18T08:59:16;79759.13;;;-146.65;100.00
57094;BME280;42970;50.996;3.706;2022-12-18T09:01:42;79738.94;;;-146.65;100.00
57094;BME280;42970;50.996;3.706;2022-12-18T09:04:07;79726.81;;;-146.65;100.00
57094;BME280;42970;50.996;3.706;2022-12-18T09:06:32;79718.75;;;-146.65;100.00
57094;BME280;42970;50.996;3.706;2022-12-18T09:08:58;79706.63;;;-146.65;100.00
57094;BME280;42970;50.996;3.706;2022-12-18T09:11:24;79688.44;;;-146.65;100.00
57094;BME280;42970;50.996;3.706;2022-12-18T09:13:50;79666.25;;;-146.65;100.00
57094;BME280;42970;50.996;3.706;2022-12-18T09:16:15;79658.16;;;-146.65;100.00
57094;BME280;42970;50.996;3.706;2022-12-18T09:18:40;79666.25;;;-146.65;100.00
57094;BME280;42970;50.996;3.706;2022-12-18T09:21:13;79648.06;;;-146.65;100.00
57094;BME280;42970;50.996;3.706;2022-12-18T09:23:38;79646.03;;;-146.65;100.00
57094;BME280;42970;50.996;3.706;2022-12-18T09:26:04;79642.00;;;-146.65;100.00
57094;BME280;42970;50.996;3.706;2022-12-18T09:28:29;79633.94;;;-146.65;100.00
57094;BME280;42970;50.996;3.706;2022-12-18T09:30:54;79619.78;;;-146.65;100.00
57094;BME280;42970;50.996;3.706;2022-12-18T09:33:20;79613.75;;;-146.65;100.00
57094;BME280;42970;50.996;3.706;2022-12-18T09:35:45;79607.69;;;-146.65;100.00
57094;BME280;42970;50.996;3.706;2022-12-18T09:38:19;79599.59;;;-146.65;100.00
57094;BME280;42970;50.996;3.706;2022-12-18T09:40:47;79573.34;;;-146.65;100.00
57094;BME280;42970;50.996;3.706;2022-12-18T09:43:17;79569.31;;;-146.65;100.00
57094;BME280;42970;50.996;3.706;2022-12-18T09:45:44;79549.13;;;-146.65;100.00
57094;BME280;42970;50.996;3.706;2022-12-18T09:48:16;79565.28;;;-146.65;100.00
57094;BME280;42970;50.996;3.706;2022-12-18T09:50:44;79541.06;;;-146.65;100.00
57094;BME280;42970;50.996;3.706;2022-12-18T09:53:12;79528.94;;;-146.65;100.00
57094;BME280;42970;50.996;3.706;2022-12-18T09:55:40;79520.88;;;-146.65;100.00
57094;BME280;42970;50.996;3.706;2022-12-18T09:58:29;79520.88;;;-146.65;100.00
57094;BME280;42970;50.996;3.706;2022-12-18T10:00:52;79512.78;;;-146.65;100.00
57094;BME280;42970;50.996;3.706;2022-12-18T10:03:18;79508.75;;;-146.65;100.00
57094;BME280;42970;50.996;3.706;2022-12-18T10:13:42;79484.53;;;-146.65;100.00
57094;BME280;42970;50.996;3.706;2022-12-18T10:16:22;79464.34;;;-146.65;100.00
57094;BME280;42970;50.996;3.706;2022-12-18T10:18:59;79460.28;;;-146.65;100.00
57094;BME280;42970;50.996;3.706;2022-12-18T10:21:32;79460.28;;;-146.65;100.00
57094;BME280;42970;50.996;3.706;2022-12-18T10:24:11;79456.25;;;-146.65;100.00
57094;BME280;42970;50.996;3.706;2022-12-18T10:26:40;79452.22;;;-146.65;100.00
57094;BME280;42970;50.996;3.706;2022-12-18T10:29:10;79415.88;;;-146.65;100.00
57094;BME280;42970;50.996;3.706;2022-12-18T10:31:37;79419.91;;;-146.65;100.00
57094;BME280;42970;50.996;3.706;2022-12-18T10:34:02;79423.94;;;-146.65;100.00
57094;BME280;42970;50.996;3.706;2022-12-18T10:36:27;79421.94;;;-146.65;100.00
57094;BME280;42970;50.996;3.706;2022-12-18T10:38:53;79401.75;;;-146.65;100.00
57094;BME280;42970;50.996;3.706;2022-12-18T10:43:48;79389.63;;;-146.65;100.00
57094;BME280;42970;50.996;3.706;2022-12-18T10:46:17;79385.59;;;-146.65;100.00
57094;BME280;42970;50.996;3.706;2022-12-18T10:56:37;79341.16;;;-146.65;100.00
57094;BME280;42970;50.996;3.706;2022-12-18T10:59:04;79325.03;;;-146.65;100.00
57094;BME280;42970;50.996;3.706;2022-12-18T11:01:44;79310.88;;;-146.65;100.00
57094;BME280;42970;50.996;3.706;2022-12-18T11:04:15;79296.75;;;-146.65;100.00
57094;BME280;42970;50.996;3.706;2022-12-18T11:07:00;79284.63;;;-146.65;100.00
57094;BME280;42970;50.996;3.706;2022-12-18T11:09:27;79278.59;;;-146.65;100.00
57094;BME280;42970;50.996;3.706;2022-12-18T11:11:53;79270.50;;;-146.65;100.00
57094;BME280;42970;50.996;3.706;2022-12-18T11:14:26;79258.41;;;-146.65;99.38
57094;BME280;42970;50.996;3.706;2022-12-18T11:16:52;79252.34;;;-146.65;97.08
57094;BME280;42970;50.996;3.706;2022-12-18T11:19:20;79246.28;;;-146.65;95.84
57094;BME280;42970;50.996;3.706;2022-12-18T11:21:47;79238.22;;;-146.65;95.70
57094;BME280;42970;50.996;3.706;2022-12-18T11:26:58;79236.19;;;-146.65;96.79
57094;BME280;42970;50.996;3.706;2022-12-18T11:29:35;79222.06;;;-146.65;96.29
57094;BME280;42970;50.996;3.706;2022-12-18T11:32:21;79213.97;;;-146.65;94.73
57094;BME280;42970;50.996;3.706;2022-12-18T11:34:51;79211.97;;;-146.65;95.02
57094;BME280;42970;50.996;3.706;2022-12-18T11:37:17;79205.91;;;-146.65;94.65
57094;BME280;42970;50.996;3.706;2022-12-18T11:39:46;79201.88;;;-146.65;95.54
57094;BME280;42970;50.996;3.706;2022-12-18T11:42:35;79195.81;;;-146.65;95.59
57094;BME280;42970;50.996;3.706;2022-12-18T11:45:17;79195.81;;;-146.65;95.93
57094;BME280;42970;50.996;3.706;2022-12-18T11:48:01;79187.72;;;-146.65;95.08
57094;BME280;42970;50.996;3.706;2022-12-18T11:50:31;79173.59;;;-146.65;94.24
57094;BME280;42970;50.996;3.706;2022-12-18T11:52:58;79173.59;;;-146.65;95.12
57094;BME280;42970;50.996;3.706;2022-12-18T12:11:00;79125.16;;;-146.65;96.89
57094;BME280;42970;50.996;3.706;2022-12-18T12:13:31;79113.03;;;-146.65;96.16
57094;BME280;42970;50.996;3.706;2022-12-18T12:18:33;79111.00;;;-146.65;94.62
57094;BME280;42970;50.996;3.706;2022-12-18T12:26:11;79078.72;;;-146.65;94.25
57094;BME280;42970;50.996;3.706;2022-12-18T12:31:14;79060.53;;;-146.65;93.17
57094;BME280;42970;50.996;3.706;2022-12-18T12:36:40;79050.44;;;-146.65;93.20
57094;BME280;42970;50.996;3.706;2022-12-18T12:39:02;79030.25;;;-146.65;92.97
57094;BME280;42970;50.996;3.706;2022-12-18T12:41:31;79030.25;;;-146.65;92.89
57094;BME280;42970;50.996;3.706;2022-12-18T12:44:18;79032.28;;;-146.65;91.54
57094;BME280;42970;50.996;3.706;2022-12-18T12:46:45;79034.31;;;-146.65;92.59
57094;BME280;42970;50.996;3.706;2022-12-18T12:49:17;79030.25;;;-146.65;91.89
57094;BME280;42970;50.996;3.706;2022-12-18T12:51:47;79024.22;;;-146.65;92.37
57094;BME280;42970;50.996;3.706;2022-12-18T12:54:19;79016.13;;;-146.65;92.28
57094;BME280;42970;50.996;3.706;2022-12-18T12:59:30;79014.13;;;-146.65;92.28
57094;BME280;42970;50.996;3.706;2022-12-18T13:02:05;79008.06;;;-146.65;93.09
57094;BME280;42970;50.996;3.706;2022-12-18T13:07:09;78983.84;;;-146.65;92.82
57094;BME280;42970;50.996;3.706;2022-12-18T13:12:22;78991.91;;;-146.65;92.82
57094;BME280;42970;50.996;3.706;2022-12-18T13:18:03;78983.84;;;-146.65;93.03
57094;BME280;42970;50.996;3.706;2022-12-18T13:20:32;78983.84;;;-146.65;92.89
57094;BME280;42970;50.996;3.706;2022-12-18T13:22:58;78981.81;;;-146.65;92.83
57094;BME280;42970;50.996;3.706;2022-12-18T13:25:27;78979.78;;;-146.65;92.03
57094;BME280;42970;50.996;3.706;2022-12-18T13:28:00;78971.72;;;-146.65;91.90
57094;BME280;42970;50.996;3.706;2022-12-18T13:48:25;78943.47;;;-146.65;89.77
57094;BME280;42970;50.996;3.706;2022-12-18T13:53:24;78939.41;;;-146.65;89.59
57094;BME280;42970;50.996;3.706;2022-12-18T13:55:51;78937.41;;;-146.65;89.57
57094;BME280;42970;50.996;3.706;2022-12-18T13:58:16;78933.38;;;-146.65;89.73
57094;BME280;42970;50.996;3.706;2022-12-18T14:00:42;78919.22;;;-146.65;89.27
57094;BME280;42970;50.996;3.706;2022-12-18T14:03:18;78915.19;;;-146.65;89.43
57094;BME280;42970;50.996;3.706;2022-12-18T14:05:44;78917.22;;;-146.65;89.34
57094;BME280;42970;50.996;3.706;2022-12-18T14:08:14;78911.16;;;-146.65;89.01
57094;BME280;42970;50.996;3.706;2022-12-18T14:10:44;78915.19;;;-146.65;88.60